Skip Navigation LinksHome page > Weather > Current weather Skip Navigation Links

Current Weather

Indira Gandhi Intl Apt, New Delhi, India

For information only: do not use for flight planning or navigation.
Latest weather
Observation time Monday, October 14, 2019 5:00 AM IST
Local time Monday, October 14, 2019 5:10 AM IST
Flight conditions Instrument Meteorological Conditions
Winds
Wind speed calm
Visibility 2 mi.
Present weather haze
Sky condition
Ceiling unlimited
Cloud layer few clouds 10,000 ft.
Temperature 72°F
Dewpoint 63°F
Altimeter 29.88 in.Hg
Derived measurements
Relative humidity 73%
Density altitude 1888 ft.
METAR VIDP 132330Z 00000KT 3200 HZ FEW100 22/17 Q1012 BECMG 3000 HZ

Settings

Location code

InnerDrive.Weather 4.0.6770.0 Release CLR 4.0.30319.42000
Copyright ©2018 Inner Drive Technology. All rights reserved. Portions Copyright ©1986-2018 David Braverman.

Find weather

Site navigation


Skip Navigation Links

Place info

Page info

PayPal - The safer, easier way to pay online!

Return home.

Copyright ©2019 Inner Drive Technology. Purveyors of fine, hand-crafted computer software. Page printed 2019-10-13T23:40:36 UTC.